createdAt,value
2019-01-10T00:07:48.998Z,79.02
2019-01-10T00:12:53.285Z,78.05
2019-01-10T00:28:43.172Z,78.38
2019-01-10T00:33:48.146Z,78.50
2019-01-10T00:39:11.709Z,78.34
2019-01-10T00:54:41.316Z,78.68
2019-01-10T01:00:25.035Z,78.92
2019-01-10T01:05:48.664Z,78.99
2019-01-10T01:11:12.375Z,78.46
2019-01-10T01:26:36.592Z,78.67
2019-01-10T01:31:40.813Z,78.58
2019-01-10T01:36:45.035Z,78.89
2019-01-10T01:47:18.402Z,78.86
2019-01-10T01:52:23.043Z,78.81
2019-01-10T02:02:56.507Z,78.51
2019-01-10T02:13:16.673Z,79.01
2019-01-10T02:18:16.969Z,79.41
2019-01-10T02:23:40.257Z,79.54
2019-01-10T02:29:03.556Z,79.74
2019-01-10T02:34:07.784Z,79.75
2019-01-10T02:39:51.427Z,80.19
2019-01-10T02:50:45.079Z,80.36
2019-01-10T03:00:59.221Z,81.06
2019-01-10T03:06:03.451Z,80.21
2019-01-10T03:11:07.684Z,80.52
2019-01-10T03:16:30.993Z,80.20
2019-01-10T03:21:35.353Z,80.24
2019-01-10T03:31:49.842Z,80.49
2019-01-10T03:36:54.113Z,80.46
2019-01-10T03:42:17.417Z,80.09
2019-01-10T03:47:21.650Z,80.27
2019-01-10T03:52:44.944Z,80.24
2019-01-10T03:57:49.180Z,80.50
2019-01-10T04:02:53.413Z,80.90
2019-01-10T04:13:07.998Z,80.55
2019-01-10T04:18:12.221Z,80.76
2019-01-10T04:23:16.555Z,80.96
2019-01-10T04:28:20.799Z,80.76
2019-01-10T04:33:44.106Z,80.33
2019-01-10T04:38:48.336Z,79.97
2019-01-10T04:43:52.580Z,79.58
2019-01-10T04:48:56.821Z,80.01
2019-01-10T04:54:01.067Z,80.08
2019-01-10T05:04:15.347Z,80.04
2019-01-10T05:09:19.979Z,80.37
2019-01-10T05:14:24.204Z,80.90
2019-01-10T05:19:28.724Z,81.37
2019-01-10T05:24:45.292Z,81.79
2019-01-10T05:29:49.884Z,82.03
2019-01-10T05:34:54.423Z,82.28
2019-01-10T05:40:18.015Z,82.40
2019-01-10T05:55:41.703Z,82.83
2019-01-10T06:01:04.957Z,82.98
2019-01-10T06:06:09.204Z,83.19
2019-01-10T06:16:23.032Z,83.30
2019-01-10T06:21:46.351Z,83.20
2019-01-10T06:32:19.057Z,83.45
2019-01-10T06:37:23.320Z,83.67
2019-01-10T06:42:27.578Z,83.74
2019-01-10T06:47:31.833Z,83.62
2019-01-10T06:52:36.076Z,83.69
2019-01-10T07:03:29.012Z,83.67
2019-01-10T07:08:33.239Z,83.61
2019-01-10T07:13:56.539Z,83.99
2019-01-10T07:19:00.790Z,84.14
2019-01-10T07:24:05.026Z,84.08
2019-01-10T07:29:50.074Z,84.15
2019-01-10T07:35:13.894Z,84.39
2019-01-10T07:40:57.817Z,84.23
2019-01-10T07:46:45.728Z,83.28
2019-01-10T07:51:49.977Z,83.98
2019-01-10T07:57:13.588Z,84.15
2019-01-10T08:02:37.131Z,84.56
2019-01-10T08:07:41.378Z,84.13
2019-01-10T08:12:45.619Z,84.31
2019-01-10T08:18:29.556Z,84.79
2019-01-10T08:29:02.935Z,84.55
2019-01-10T08:39:36.459Z,84.35
2019-01-10T08:44:59.806Z,84.44
2019-01-10T09:00:44.501Z,84.00
2019-01-10T09:06:08.363Z,84.67
2019-01-10T09:16:24.139Z,84.11
2019-01-10T09:31:47.872Z,83.40
2019-01-10T09:37:11.272Z,82.35
2019-01-10T09:42:34.565Z,81.67
2019-01-10T09:47:38.801Z,80.65
2019-01-10T09:52:43.102Z,81.53
2019-01-10T09:57:47.398Z,81.00
2019-01-10T10:02:51.635Z,80.61
2019-01-10T10:08:14.963Z,80.99
2019-01-10T10:18:29.148Z,79.63
2019-01-10T10:23:33.390Z,79.14
2019-01-10T10:28:38.052Z,80.63
2019-01-10T10:33:42.277Z,79.65
2019-01-10T10:38:58.527Z,80.26
2019-01-10T10:44:02.765Z,79.01
2019-01-10T10:49:46.618Z,78.79
2019-01-10T10:55:10.121Z,79.21
2019-01-10T11:00:55.531Z,78.15
2019-01-10T11:16:19.923Z,78.59
2019-01-10T11:21:43.471Z,78.61
2019-01-10T11:27:06.767Z,77.64
2019-01-10T11:32:13.408Z,74.70
2019-01-10T11:42:26.342Z,73.05
2019-01-10T11:47:30.613Z,72.83
2019-01-10T11:52:35.246Z,72.21
2019-01-10T11:58:18.869Z,72.57
2019-01-10T12:03:23.143Z,71.56
2019-01-10T12:13:56.408Z,72.32
2019-01-10T12:29:39.844Z,72.26
2019-01-10T12:45:22.231Z,71.37
2019-01-10T12:50:45.537Z,70.89
2019-01-10T12:55:49.773Z,71.12
2019-01-10T13:00:53.996Z,70.34
2019-01-10T13:05:58.237Z,69.86
2019-01-10T13:11:02.564Z,71.02
2019-01-10T13:16:06.876Z,70.48
2019-01-10T13:32:09.002Z,70.15
2019-01-10T13:47:53.677Z,69.11
2019-01-10T13:52:57.995Z,69.12
2019-01-10T13:58:21.500Z,68.99
2019-01-10T14:03:25.778Z,69.02
2019-01-10T14:08:49.091Z,68.31
2019-01-10T14:13:53.310Z,67.71
2019-01-10T14:19:16.630Z,68.36
2019-01-10T14:24:39.901Z,67.55
2019-01-10T14:35:13.543Z,69.05
2019-01-10T14:40:36.852Z,68.95
2019-01-10T14:46:20.893Z,68.32
2019-01-10T14:56:58.061Z,69.82
2019-01-10T15:17:50.668Z,70.27
2019-01-10T15:28:42.873Z,70.06
2019-01-10T15:33:47.110Z,70.76
2019-01-10T15:38:51.379Z,71.56
2019-01-10T15:55:12.505Z,71.83
2019-01-10T16:21:14.587Z,73.33
2019-01-10T16:26:18.925Z,74.51
2019-01-10T16:31:23.155Z,74.70
2019-01-10T16:36:27.391Z,74.64
2019-01-10T16:41:50.600Z,74.96
2019-01-10T16:46:54.839Z,74.63
2019-01-10T16:51:59.068Z,75.96
2019-01-10T16:57:15.466Z,75.66
2019-01-10T17:02:19.693Z,74.57
2019-01-10T17:12:33.781Z,75.38
2019-01-10T17:23:06.942Z,75.33
2019-01-10T17:49:29.355Z,75.30
2019-01-10T17:54:33.735Z,75.73
2019-01-10T17:59:38.229Z,76.20
2019-01-10T18:04:42.830Z,77.48
2019-01-10T18:09:47.061Z,77.20
2019-01-10T18:20:01.404Z,77.93
2019-01-10T18:25:45.177Z,79.33
2019-01-10T18:30:49.483Z,79.34
2019-01-10T18:36:12.890Z,80.47
2019-01-10T18:52:35.175Z,80.02
2019-01-10T18:57:58.499Z,79.88
2019-01-10T19:03:42.188Z,79.54
2019-01-10T19:20:06.013Z,79.71
2019-01-10T19:30:58.983Z,82.13
2019-01-10T19:36:03.220Z,82.80
2019-01-10T19:46:17.186Z,83.81
2019-01-10T19:51:40.490Z,84.67
2019-01-10T19:56:44.722Z,85.07
2019-01-10T20:12:46.247Z,86.09
2019-01-10T20:23:43.636Z,86.18
2019-01-10T20:34:16.918Z,87.07
2019-01-10T20:39:21.159Z,87.40
2019-01-10T20:44:25.470Z,87.32
2019-01-10T20:54:39.368Z,87.68
2019-01-10T21:10:55.621Z,88.06
2019-01-10T21:26:39.666Z,87.50
2019-01-10T21:32:03.007Z,87.69
2019-01-10T21:43:16.424Z,87.95
2019-01-10T21:48:39.748Z,88.56
2019-01-10T21:54:03.320Z,88.36
2019-01-10T21:59:08.981Z,89.01
2019-01-10T22:04:32.282Z,89.17
2019-01-10T22:09:36.551Z,89.10
2019-01-10T22:14:52.591Z,88.94
2019-01-10T22:20:08.360Z,89.24
2019-01-10T22:30:42.802Z,89.26
2019-01-10T22:35:47.113Z,89.47
2019-01-10T22:46:21.598Z,89.69
2019-01-10T22:51:25.887Z,90.05
2019-01-10T23:02:43.933Z,89.89
2019-01-10T23:07:48.554Z,89.85
2019-01-10T23:13:12.018Z,90.07
2019-01-10T23:18:27.797Z,90.06
2019-01-10T23:29:01.361Z,90.51
2019-01-10T23:34:24.747Z,90.61
2019-01-10T23:39:29.014Z,90.77
2019-01-10T23:44:33.423Z,91.03
2019-01-10T23:49:57.123Z,91.05
2019-01-10T23:55:40.809Z,91.16
